Time;durP1;ratioP1;P1;durP2;ratioP2;P2;SDS_P1;SDS_P2;PMS_P1;PMS_P2;Temp;Humidity;BMP_temperature;BMP_pressure;BME280_temperature;BME280_humidity;BME280_pressure;Samples;Min_cycle;Max_cycle;Signal;HPM_P1;HPM_P2
2023/06/05 00:01:10;;;;;;;2.50;2.40;;;;;;;14.40;60.17;97084.63;5028575;28;20240;-69
2023/06/05 00:03:39;;;;;;;2.93;2.50;;;;;;;14.41;61.33;97082.78;5052568;28;20258;-69
2023/06/05 00:06:08;;;;;;;2.53;2.33;;;;;;;14.43;61.96;97081.53;5027148;28;20216;-68
2023/06/05 00:08:36;;;;;;;2.47;2.37;;;;;;;14.43;63.01;97078.84;5044969;28;20688;-69
2023/06/05 00:11:04;;;;;;;2.80;2.60;;;;;;;14.40;62.40;97078.47;5051347;28;20195;-69
2023/06/05 00:13:32;;;;;;;2.57;2.37;;;;;;;14.39;62.68;97080.31;5003419;28;20939;-69
2023/06/05 00:16:02;;;;;;;2.33;2.23;;;;;;;14.40;62.67;97081.16;5029197;28;20199;-68
2023/06/05 00:18:30;;;;;;;2.27;2.17;;;;;;;14.46;61.75;97086.44;5049553;28;20207;-70
2023/06/05 00:20:58;;;;;;;2.27;2.17;;;;;;;14.49;61.09;97085.19;5034971;28;20215;-68
2023/06/05 00:23:27;;;;;;;2.20;2.10;;;;;;;14.42;61.88;97085.22;5048825;28;20254;-70
2023/06/05 00:25:55;;;;;;;2.07;1.97;;;;;;;14.49;62.56;97085.19;5048762;28;20210;-68
2023/06/05 00:28:24;;;;;;;2.47;2.37;;;;;;;14.48;61.67;97092.38;5028118;28;20866;-71
2023/06/05 00:30:51;;;;;;;2.77;2.57;;;;;;;14.46;61.45;97085.63;5030099;28;20234;-70
2023/06/05 00:33:19;;;;;;;2.77;2.57;;;;;;;14.48;62.33;97081.69;5032182;28;20792;-70
2023/06/05 00:35:47;;;;;;;2.33;2.23;;;;;;;14.44;62.92;97090.34;5030401;28;21649;-69
2023/06/05 00:38:14;;;;;;;3.30;2.43;;;;;;;14.35;65.11;97078.25;5050196;28;20202;-71
2023/06/05 00:40:43;;;;;;;4.57;2.70;;;;;;;14.30;65.62;97078.91;5045065;28;20744;-69
2023/06/05 00:43:11;;;;;;;2.80;2.60;;;;;;;14.21;68.68;97078.31;5048558;28;20262;-70
2023/06/05 00:45:39;;;;;;;2.43;2.33;;;;;;;14.17;67.20;97075.25;4993538;28;20456;-66
2023/06/05 00:48:07;;;;;;;3.63;2.70;;;;;;;14.17;68.53;97077.91;5032938;28;20257;-68
2023/06/05 00:50:36;;;;;;;3.20;2.90;;;;;;;14.13;69.38;97076.69;5050762;28;20431;-69
2023/06/05 00:53:04;;;;;;;2.50;2.30;;;;;;;14.02;72.00;97080.84;5028436;28;20227;-68
2023/06/05 00:55:32;;;;;;;3.57;2.80;;;;;;;14.01;72.53;97071.19;5046476;28;20207;-70
2023/06/05 00:58:03;;;;;;;3.10;2.80;;;;;;;13.99;71.49;97085.75;5046614;28;20747;-70
2023/06/05 01:00:31;;;;;;;2.70;2.50;;;;;;;13.92;74.10;97080.44;5006537;28;20204;-71
2023/06/05 01:02:59;;;;;;;2.63;2.53;;;;;;;13.83;73.61;97077.19;5049876;28;20215;-68
2023/06/05 01:05:27;;;;;;;2.67;2.57;;;;;;;13.77;72.78;97082.53;5029648;28;20277;-71
2023/06/05 01:07:54;;;;;;;2.57;2.47;;;;;;;13.70;75.75;97079.84;5028232;28;20238;-70
2023/06/05 01:10:23;;;;;;;2.30;2.20;;;;;;;13.71;76.17;97084.16;5047343;28;20302;-72
2023/06/05 01:12:56;;;;;;;3.17;2.77;;;;;;;13.63;78.08;97087.03;5045804;28;20615;-70
2023/06/05 01:15:28;;;;;;;2.73;2.60;;;;;;;13.60;79.39;97085.59;5047310;28;20227;-71
2023/06/05 01:17:58;;;;;;;2.97;2.53;;;;;;;13.59;80.46;97076.81;4995389;28;20281;-71
2023/06/05 01:20:33;;;;;;;4.37;3.00;;;;;;;13.63;78.30;97084.38;5028244;28;20521;-71
2023/06/05 01:23:02;;;;;;;2.43;2.27;;;;;;;13.59;77.65;97076.81;5052709;28;20267;-69
2023/06/05 01:25:30;;;;;;;2.90;2.40;;;;;;;13.63;77.36;97081.72;5025094;28;20228;-71
2023/06/05 01:28:01;;;;;;;2.57;2.47;;;;;;;13.57;78.94;97070.88;5050704;28;20253;-69
2023/06/05 01:30:32;;;;;;;2.73;2.53;;;;;;;13.56;78.64;97063.91;5016220;28;20298;-69
2023/06/05 01:33:03;;;;;;;5.27;2.50;;;;;;;13.50;77.62;97064.72;4997542;28;20258;-69
2023/06/05 01:35:33;;;;;;;2.87;2.57;;;;;;;13.45;76.40;97060.00;5031942;28;20567;-70
2023/06/05 01:38:05;;;;;;;3.10;2.47;;;;;;;13.43;74.94;97061.22;5048767;28;20652;-69
2023/06/05 01:40:34;;;;;;;2.47;2.30;;;;;;;13.38;75.99;97066.31;5023355;28;20310;-70
2023/06/05 01:43:02;;;;;;;2.77;2.57;;;;;;;13.41;76.90;97057.94;5045348;28;20878;-70
2023/06/05 01:45:31;;;;;;;3.30;2.90;;;;;;;13.43;74.95;97067.38;5045275;28;20261;-71
2023/06/05 01:47:59;;;;;;;2.67;2.47;;;;;;;13.41;76.20;97057.94;4995011;28;20961;-70
2023/06/05 01:50:26;;;;;;;2.90;2.70;;;;;;;13.39;75.72;97058.16;5031281;28;20752;-69
2023/06/05 01:52:54;;;;;;;3.03;2.83;;;;;;;13.36;74.88;97052.41;5044911;28;20284;-71
2023/06/05 01:55:24;;;;;;;2.40;2.30;;;;;;;13.33;74.24;97051.00;5029404;28;20202;-69
2023/06/05 01:57:52;;;;;;;2.93;2.67;;;;;;;13.37;74.45;97048.72;5044854;28;20563;-72
2023/06/05 02:00:20;;;;;;;3.70;2.40;;;;;;;13.32;73.90;97044.84;5044122;28;20295;-69
2023/06/05 02:02:49;;;;;;;2.60;2.40;;;;;;;13.33;75.15;97053.66;5047082;28;20272;-71
2023/06/05 02:05:19;;;;;;;3.10;2.60;;;;;;;13.32;75.91;97042.16;4972623;28;20441;-70
2023/06/05 02:07:53;;;;;;;2.60;2.40;;;;;;;13.29;77.36;97037.25;5047399;28;20649;-70
2023/06/05 02:10:21;;;;;;;2.47;2.30;;;;;;;13.28;76.66;97042.81;5027246;28;20206;-70
2023/06/05 02:12:50;;;;;;;4.13;2.60;;;;;;;13.28;77.43;97040.16;5042797;28;20219;-71
2023/06/05 02:15:18;;;;;;;3.10;2.63;;;;;;;13.22;79.22;97039.13;5047543;28;20314;-70
2023/06/05 02:17:50;;;;;;;3.03;2.83;;;;;;;13.24;79.20;97045.03;5043597;28;20191;-72
2023/06/05 02:20:19;;;;;;;3.53;2.60;;;;;;;13.14;82.44;97037.47;5000961;28;20667;-68
2023/06/05 02:22:49;;;;;;;2.70;2.50;;;;;;;13.09;82.76;97034.59;5027849;28;20959;-71
2023/06/05 02:25:17;;;;;;;2.73;2.60;;;;;;;13.05;85.00;97038.69;5049222;28;20631;-68
2023/06/05 02:27:45;;;;;;;3.23;3.03;;;;;;;12.97;84.78;97023.75;5026233;28;20226;-71
2023/06/05 02:30:15;;;;;;;3.23;3.03;;;;;;;12.96;84.89;97034.59;5046653;28;20207;-69
2023/06/05 02:32:43;;;;;;;3.13;2.90;;;;;;;12.91;83.88;97029.88;5046093;28;20194;-71
2023/06/05 02:35:12;;;;;;;2.83;2.73;;;;;;;12.89;85.29;97034.56;5000924;28;20409;-68
2023/06/05 02:37:43;;;;;;;3.03;2.67;;;;;;;12.85;83.38;97028.84;5029073;28;20719;-71
2023/06/05 02:40:11;;;;;;;2.63;2.43;;;;;;;12.80;83.34;97030.47;5046504;28;20451;-68
2023/06/05 02:42:40;;;;;;;3.00;2.73;;;;;;;12.71;84.82;97024.53;5025773;28;20231;-69
2023/06/05 02:45:09;;;;;;;2.83;2.40;;;;;;;12.62;84.74;97023.88;5044405;28;20199;-70
2023/06/05 02:47:38;;;;;;;2.67;2.47;;;;;;;12.56;85.77;97027.34;5045994;28;20293;-70
2023/06/05 02:50:07;;;;;;;2.70;2.50;;;;;;;12.51;85.87;97030.63;4996282;28;20823;-69
2023/06/05 02:52:35;;;;;;;2.70;2.50;;;;;;;12.45;87.02;97031.41;5028608;28;20243;-71
2023/06/05 02:55:05;;;;;;;2.83;2.60;;;;;;;12.41;87.80;97032.81;5046137;28;20322;-68
2023/06/05 02:57:33;;;;;;;3.27;2.67;;;;;;;12.35;87.87;97037.13;5046407;28;20562;-69
2023/06/05 03:00:02;;;;;;;2.80;2.60;;;;;;;12.31;89.08;97041.16;5026545;28;20195;-69
2023/06/05 03:02:29;;;;;;;2.87;2.67;;;;;;;12.24;89.95;97037.66;5050749;28;20448;-71
2023/06/05 03:04:58;;;;;;;3.00;2.50;;;;;;;12.10;90.83;97029.66;5050673;28;21381;-70
2023/06/05 03:07:26;;;;;;;2.53;2.33;;;;;;;12.12;91.56;97030.25;4989635;28;20329;-70
2023/06/05 03:09:54;;;;;;;2.53;2.43;;;;;;;12.09;91.02;97025.34;5047676;28;20246;-71
2023/06/05 03:12:21;;;;;;;2.50;2.40;;;;;;;12.05;92.03;97025.94;5050679;28;20290;-69
2023/06/05 03:14:49;;;;;;;2.47;2.23;;;;;;;11.99;94.69;97019.56;5025098;28;20234;-70
2023/06/05 03:17:17;;;;;;;2.77;2.57;;;;;;;11.90;95.55;97026.88;5046531;28;20230;-68
2023/06/05 03:19:44;;;;;;;3.00;2.80;;;;;;;11.85;96.75;97019.47;5049938;28;20665;-70
2023/06/05 03:22:13;;;;;;;2.93;2.63;;;;;;;11.88;97.00;97026.25;5002320;28;20461;-69
2023/06/05 03:24:41;;;;;;;3.03;2.83;;;;;;;11.84;96.86;97023.16;5027788;28;20806;-70
2023/06/05 03:27:09;;;;;;;2.60;2.40;;;;;;;11.86;97.04;97025.63;5047157;28;20510;-69
2023/06/05 03:29:36;;;;;;;2.93;2.73;;;;;;;11.88;96.95;97024.38;5024609;28;20694;-69
2023/06/05 03:32:04;;;;;;;3.00;2.80;;;;;;;11.91;96.28;97022.34;5046585;28;20397;-70
2023/06/05 03:34:36;;;;;;;3.20;2.80;;;;;;;11.92;97.29;97026.66;5052693;28;20274;-69
2023/06/05 03:37:04;;;;;;;2.70;2.50;;;;;;;11.95;95.90;97024.44;4996649;28;20202;-68
2023/06/05 03:39:33;;;;;;;3.10;2.90;;;;;;;11.96;96.86;97019.97;5027748;28;20211;-68
2023/06/05 03:42:02;;;;;;;3.13;2.90;;;;;;;11.94;97.09;97032.63;5049700;28;20272;-70
2023/06/05 03:44:29;;;;;;;3.33;3.07;;;;;;;11.95;97.96;97029.75;5043636;28;20263;-68
2023/06/05 03:46:57;;;;;;;3.10;2.60;;;;;;;12.00;100.00;97026.50;5025044;28;20786;-69
2023/06/05 03:49:25;;;;;;;4.57;3.30;;;;;;;12.01;99.27;97034.28;5055405;28;20211;-68
2023/06/05 03:51:58;;;;;;;3.67;2.70;;;;;;;12.02;100.00;97029.81;5009686;28;20883;-67
2023/06/05 03:54:25;;;;;;;3.50;3.20;;;;;;;12.06;100.00;97028.41;5051793;28;20731;-68
2023/06/05 03:56:55;;;;;;;2.80;2.60;;;;;;;12.04;100.00;97026.94;5023795;28;20217;-71
2023/06/05 03:59:25;;;;;;;3.43;2.87;;;;;;;12.13;100.00;97037.22;5047795;28;20329;-69
2023/06/05 04:01:52;;;;;;;3.67;3.23;;;;;;;12.10;98.27;97015.53;5020064;28;20203;-72
2023/06/05 04:04:21;;;;;;;3.33;2.83;;;;;;;12.26;99.43;97035.63;5053370;28;20320;-68
2023/06/05 04:06:50;;;;;;;3.17;2.93;;;;;;;12.33;99.34;97046.28;5018893;28;20240;-70
2023/06/05 04:09:17;;;;;;;4.70;3.00;;;;;;;12.44;97.77;97046.53;5019442;28;20212;-70
2023/06/05 04:11:47;;;;;;;4.03;3.23;;;;;;;12.48;100.00;97049.59;5020070;28;20219;-70
2023/06/05 04:14:16;;;;;;;4.50;2.93;;;;;;;12.53;98.69;97047.19;5044611;28;20310;-71
2023/06/05 04:16:44;;;;;;;2.90;2.60;;;;;;;12.51;98.71;97051.88;5026617;28;20881;-68
2023/06/05 04:19:12;;;;;;;3.33;3.07;;;;;;;12.54;98.32;97043.50;5049271;28;20290;-70
2023/06/05 04:21:41;;;;;;;4.10;2.80;;;;;;;12.64;99.67;97047.63;5051538;28;21012;-69
2023/06/05 04:24:10;;;;;;;4.50;2.70;;;;;;;12.73;99.63;97043.75;5000679;28;20699;-71
2023/06/05 04:26:41;;;;;;;4.37;2.47;;;;;;;12.90;96.95;97046.06;5029583;28;20281;-69
2023/06/05 04:29:13;;;;;;;3.13;2.80;;;;;;;13.00;95.15;97052.59;5049375;28;20434;-70
2023/06/05 04:31:43;;;;;;;3.30;2.67;;;;;;;13.05;95.34;97052.00;5028968;28;21323;-70
2023/06/05 04:34:10;;;;;;;2.90;2.70;;;;;;;13.10;94.89;97046.88;5055378;28;20740;-71
2023/06/05 04:36:38;;;;;;;3.80;3.40;;;;;;;13.18;94.37;97045.88;5053318;28;20344;-70
2023/06/05 04:39:13;;;;;;;15.00;5.63;;;;;;;13.22;94.03;97047.09;4998852;28;20211;-72
2023/06/05 04:41:44;;;;;;;3.20;2.90;;;;;;;13.28;92.68;97040.94;5052000;28;20279;-70
2023/06/05 04:44:13;;;;;;;2.87;2.53;;;;;;;13.32;93.44;97034.19;5028930;28;20226;-71
2023/06/05 04:46:43;;;;;;;2.93;2.73;;;;;;;13.34;94.09;97046.47;5048216;28;20419;-71
2023/06/05 04:49:11;;;;;;;2.80;2.60;;;;;;;13.42;93.42;97032.94;5034746;28;20693;-71
2023/06/05 04:51:39;;;;;;;2.90;2.70;;;;;;;13.61;91.24;97047.28;5050808;28;20326;-71
2023/06/05 04:54:06;;;;;;;3.70;3.00;;;;;;;13.78;91.80;97037.03;5001704;28;20215;-72
2023/06/05 04:56:34;;;;;;;4.53;3.60;;;;;;;14.04;91.16;97035.34;5052603;28;20488;-70
2023/06/05 04:59:02;;;;;;;3.13;2.53;;;;;;;14.30;86.79;97036.28;5046718;28;20203;-71
2023/06/05 05:01:30;;;;;;;3.03;2.83;;;;;;;14.31;85.87;97036.06;5049523;28;20222;-71
2023/06/05 05:03:59;;;;;;;2.93;2.73;;;;;;;14.42;83.98;97037.25;5031858;28;20234;-70
2023/06/05 05:06:27;;;;;;;3.00;2.70;;;;;;;14.42;86.60;97044.44;5049131;28;20207;-69
2023/06/05 05:08:55;;;;;;;3.00;2.63;;;;;;;14.57;85.47;97041.47;5051833;28;20207;-70
2023/06/05 05:11:22;;;;;;;2.50;2.30;;;;;;;14.64;85.85;97036.94;4998603;28;20219;-71
2023/06/05 05:13:50;;;;;;;3.20;2.90;;;;;;;14.80;84.00;97040.97;5048247;28;20820;-71
2023/06/05 05:16:18;;;;;;;4.97;3.23;;;;;;;14.74;84.53;97037.31;5029887;28;20297;-71
2023/06/05 05:18:45;;;;;;;3.90;3.03;;;;;;;14.93;84.76;97039.25;5024890;28;20248;-69
2023/06/05 05:21:14;;;;;;;2.97;2.60;;;;;;;15.15;82.46;97035.22;5053499;28;20268;-71
2023/06/05 05:23:42;;;;;;;3.27;2.50;;;;;;;15.45;80.39;97033.72;5054556;28;20307;-69
2023/06/05 05:26:10;;;;;;;2.90;2.70;;;;;;;15.42;80.44;97039.50;4995702;28;20211;-70
2023/06/05 05:28:38;;;;;;;3.30;3.00;;;;;;;15.76;80.22;97037.34;5046801;28;20418;-68
2023/06/05 05:31:05;;;;;;;3.53;3.23;;;;;;;15.88;78.89;97032.94;5030806;28;20625;-69
2023/06/05 05:33:33;;;;;;;4.17;2.70;;;;;;;15.94;78.55;97033.09;5051649;28;20393;-71
2023/06/05 05:36:01;;;;;;;3.20;2.73;;;;;;;16.17;78.55;97040.44;5031113;28;20208;-69
2023/06/05 05:38:30;;;;;;;3.10;2.90;;;;;;;16.19;79.94;97036.50;5049703;28;20230;-69
2023/06/05 05:40:58;;;;;;;3.27;2.90;;;;;;;16.33;79.65;97039.00;4995799;28;20825;-69
2023/06/05 05:43:26;;;;;;;3.40;3.10;;;;;;;16.50;78.49;97036.53;5048272;28;20280;-69
2023/06/05 05:45:53;;;;;;;3.93;3.17;;;;;;;16.45;79.83;97031.03;5048256;28;20242;-69
2023/06/05 05:48:22;;;;;;;3.37;3.17;;;;;;;16.56;81.05;97045.53;5029944;28;20620;-71
2023/06/05 05:50:50;;;;;;;3.93;3.63;;;;;;;16.61;81.63;97042.97;5030503;28;20211;-69
2023/06/05 05:53:18;;;;;;;3.10;2.80;;;;;;;16.76;82.55;97032.69;5046978;28;20222;-72
2023/06/05 05:55:47;;;;;;;3.80;3.50;;;;;;;16.89;85.47;97045.06;5045404;28;20666;-69
2023/06/05 05:58:15;;;;;;;4.43;3.47;;;;;;;16.83;86.14;97034.44;4986707;28;20705;-71
2023/06/05 06:00:42;;;;;;;3.63;3.33;;;;;;;16.75;86.44;97044.41;5047442;28;20297;-70
2023/06/05 06:03:11;;;;;;;5.50;3.40;;;;;;;16.46;90.14;97043.38;5033853;28;20227;-72
2023/06/05 06:05:39;;;;;;;3.80;3.50;;;;;;;16.09;94.24;97035.38;5047622;28;20250;-69
2023/06/05 06:08:07;;;;;;;3.70;3.40;;;;;;;15.96;96.16;97028.31;5025431;28;20221;-68
2023/06/05 06:10:36;;;;;;;3.80;3.50;;;;;;;16.05;98.67;97032.34;5047436;28;20578;-69
2023/06/05 06:13:05;;;;;;;4.97;3.60;;;;;;;16.03;99.28;97034.41;4991230;28;20238;-69
2023/06/05 06:15:33;;;;;;;3.27;3.07;;;;;;;16.03;100.00;97039.75;5047917;28;20230;-72
2023/06/05 06:18:02;;;;;;;5.63;3.43;;;;;;;15.99;100.00;97028.72;5029671;28;20220;-69
2023/06/05 06:20:30;;;;;;;3.83;3.53;;;;;;;16.17;100.00;97035.06;5048253;28;20202;-70
2023/06/05 06:22:57;;;;;;;3.73;3.43;;;;;;;16.28;99.71;97031.66;5023208;28;20218;-68
2023/06/05 06:25:28;;;;;;;9.10;3.63;;;;;;;16.36;99.52;97035.88;5043508;28;21687;-69
2023/06/05 06:27:56;;;;;;;3.70;3.50;;;;;;;16.43;100.00;97025.91;4995566;28;20234;-69
2023/06/05 06:30:25;;;;;;;3.63;3.33;;;;;;;16.56;99.40;97032.16;5047790;28;20230;-70
2023/06/05 06:32:54;;;;;;;4.10;3.80;;;;;;;16.94;100.00;97033.69;5033004;28;20255;-69
2023/06/05 06:35:22;;;;;;;4.93;3.70;;;;;;;17.29;95.03;97035.66;5050360;28;20739;-70
2023/06/05 06:37:50;;;;;;;3.80;3.40;;;;;;;17.78;93.15;97030.03;5027298;28;20210;-68
2023/06/05 06:40:17;;;;;;;6.27;4.23;;;;;;;18.15;97.77;97030.84;5044928;28;20289;-70
2023/06/05 06:42:45;;;;;;;5.00;4.53;;;;;;;18.48;96.27;97032.03;4993869;28;22991;-69
2023/06/05 06:45:13;;;;;;;4.77;4.33;;;;;;;18.64;96.29;97035.84;5052847;28;20663;-70
2023/06/05 06:47:42;;;;;;;6.83;5.00;;;;;;;18.29;96.85;97037.59;5040188;28;20885;-69
2023/06/05 06:50:22;;;;;;;5.03;4.63;;;;;;;18.08;100.00;97034.47;5050942;28;20634;-70
2023/06/05 06:52:50;;;;;;;4.83;4.40;;;;;;;18.19;100.00;97032.81;5048565;28;20260;-69
2023/06/05 06:55:18;;;;;;;5.33;4.87;;;;;;;18.50;100.00;97033.44;5026643;28;20231;-71
2023/06/05 06:57:45;;;;;;;4.77;4.33;;;;;;;18.77;100.00;97032.88;4989412;28;21805;-69
2023/06/05 07:00:14;;;;;;;4.57;4.17;;;;;;;18.60;97.39;97032.00;5049202;28;20286;-71
2023/06/05 07:02:43;;;;;;;4.70;4.40;;;;;;;18.50;98.34;97037.97;5052971;28;20771;-70
2023/06/05 07:05:11;;;;;;;6.57;4.33;;;;;;;18.34;100.00;97031.50;5030595;28;20256;-70
2023/06/05 07:07:39;;;;;;;4.57;4.27;;;;;;;18.49;100.00;97031.81;5048199;28;20343;-70
2023/06/05 07:10:07;;;;;;;4.77;4.33;;;;;;;18.54;99.65;97028.41;5028635;28;20620;-72
2023/06/05 07:12:35;;;;;;;4.60;4.20;;;;;;;18.54;100.00;97024.91;5047564;28;21158;-68
2023/06/05 07:15:03;;;;;;;4.70;4.10;;;;;;;18.60;99.04;97027.47;4990763;28;20270;-68
2023/06/05 07:17:31;;;;;;;4.87;4.50;;;;;;;18.68;100.00;97028.13;5046585;28;20557;-70
2023/06/05 07:20:00;;;;;;;5.20;4.70;;;;;;;19.00;99.94;97025.78;5030964;28;20207;-69
2023/06/05 07:22:30;;;;;;;4.73;3.50;;;;;;;19.16;97.80;97026.84;5048888;28;20272;-68
2023/06/05 07:24:57;;;;;;;4.73;4.33;;;;;;;19.69;95.16;97031.94;5027049;28;20238;-71
2023/06/05 07:27:25;;;;;;;4.70;4.40;;;;;;;19.57;92.30;97029.38;5045021;28;20209;-69
2023/06/05 07:29:53;;;;;;;4.47;4.17;;;;;;;19.48;94.42;97025.44;4995544;28;20424;-68
2023/06/05 07:32:21;;;;;;;7.63;5.10;;;;;;;19.45;95.82;97028.63;5045630;28;20207;-70
2023/06/05 07:34:48;;;;;;;4.50;4.17;;;;;;;19.38;93.07;97026.13;5052204;28;20657;-67
2023/06/05 07:37:17;;;;;;;4.13;3.83;;;;;;;19.61;96.35;97033.19;5027854;28;20691;-71
2023/06/05 07:39:46;;;;;;;4.73;4.20;;;;;;;19.48;94.36;97031.66;5025924;28;20276;-69
2023/06/05 07:42:14;;;;;;;4.07;3.77;;;;;;;19.43;94.28;97036.94;5049694;28;20199;-70
2023/06/05 07:44:43;;;;;;;4.37;4.07;;;;;;;19.29;97.04;97043.69;4994062;28;21154;-70
2023/06/05 07:47:11;;;;;;;5.17;4.40;;;;;;;19.13;96.78;97035.38;5048501;28;20242;-70
2023/06/05 07:49:38;;;;;;;4.53;4.13;;;;;;;19.22;95.37;97043.88;5048927;28;20257;-69
2023/06/05 07:52:06;;;;;;;4.27;3.87;;;;;;;19.33;96.24;97034.91;5028108;28;20659;-70
2023/06/05 07:54:35;;;;;;;4.40;4.10;;;;;;;19.63;94.53;97030.25;5043065;28;21136;-70
2023/06/05 07:57:08;;;;;;;4.20;3.90;;;;;;;19.77;93.73;97034.22;5033292;28;20559;-70
2023/06/05 07:59:35;;;;;;;4.40;4.07;;;;;;;19.89;90.71;97031.44;4989442;28;21552;-70
2023/06/05 08:02:05;;;;;;;4.13;3.83;;;;;;;20.03;90.72;97025.72;5054209;28;20202;-69
2023/06/05 08:04:32;;;;;;;4.43;3.90;;;;;;;20.25;88.23;97025.75;5054833;28;20227;-72
2023/06/05 08:07:00;;;;;;;4.23;3.93;;;;;;;20.35;85.97;97023.16;5035115;28;20211;-70
2023/06/05 08:09:28;;;;;;;4.33;3.80;;;;;;;20.50;88.53;97019.84;5046288;28;20927;-70
2023/06/05 08:11:57;;;;;;;3.67;3.43;;;;;;;20.54;85.80;97017.47;5030113;28;20272;-70
2023/06/05 08:14:25;;;;;;;4.13;3.93;;;;;;;20.80;88.77;97017.75;5047163;28;20308;-72
2023/06/05 08:16:52;;;;;;;4.07;3.67;;;;;;;20.88;84.51;97013.78;5002257;28;20795;-71
2023/06/05 08:19:20;;;;;;;4.43;4.03;;;;;;;20.44;85.77;97017.31;5053770;28;20203;-72
2023/06/05 08:21:50;;;;;;;4.47;4.07;;;;;;;20.58;88.01;97018.59;5038567;28;20629;-72
2023/06/05 08:24:18;;;;;;;4.00;3.70;;;;;;;20.71;88.36;97016.53;5047491;28;20218;-72
2023/06/05 08:26:45;;;;;;;4.10;3.80;;;;;;;20.67;87.68;97010.88;5032965;28;20339;-69
2023/06/05 08:29:14;;;;;;;3.60;3.40;;;;;;;;;;5049449;28;20232;-72
2023/06/05 08:31:42;;;;;;;4.30;4.00;;;;;;;20.61;85.62;97004.63;4998562;28;20283;-71
2023/06/05 08:34:10;;;;;;;4.10;3.80;;;;;;;20.92;87.69;97010.34;5052290;28;20237;-72
2023/06/05 08:36:39;;;;;;;4.60;4.30;;;;;;;20.92;85.11;97012.19;5020511;28;21275;-68
2023/06/05 08:39:07;;;;;;;4.47;4.07;;;;;;;21.04;83.39;97012.88;5053746;28;20253;-69
2023/06/05 08:41:35;;;;;;;4.60;3.77;;;;;;;21.02;84.92;97012.28;5029739;28;20431;-69
2023/06/05 08:44:03;;;;;;;4.23;3.93;;;;;;;21.01;86.28;97007.97;5051191;28;20233;-70
2023/06/05 08:46:32;;;;;;;4.37;3.97;;;;;;;20.98;81.08;97011.19;4994460;28;20548;-69
2023/06/05 08:49:08;;;;;;;4.57;4.27;;;;;;;21.14;86.48;97004.03;5055748;28;20578;-69
2023/06/05 08:51:36;;;;;;;4.50;3.73;;;;;;;21.44;84.06;96999.97;5051733;28;20271;-69
2023/06/05 08:54:06;;;;;;;4.53;4.20;;;;;;;21.58;80.32;96999.50;5052337;28;20276;-71
2023/06/05 08:56:36;;;;;;;4.93;4.40;;;;;;;21.75;82.27;97008.28;5045892;28;20811;-69
2023/06/05 08:59:06;;;;;;;4.93;4.63;;;;;;;21.74;77.19;97003.97;5031733;28;20211;-69
2023/06/05 09:01:37;;;;;;;4.47;4.07;;;;;;;21.39;79.88;97000.72;4986450;28;21506;-69
2023/06/05 09:04:05;;;;;;;4.40;4.10;;;;;;;21.67;79.92;96993.41;5053634;28;20238;-69
2023/06/05 09:06:33;;;;;;;4.90;4.10;;;;;;;21.76;78.41;96998.31;5028608;28;20335;-70
2023/06/05 09:09:02;;;;;;;3.80;3.60;;;;;;;22.06;79.79;96988.75;5050438;28;20230;-68
2023/06/05 09:11:30;;;;;;;4.10;3.80;;;;;;;22.37;75.65;96989.69;5044654;28;20261;-69
2023/06/05 09:13:59;;;;;;;3.60;3.30;;;;;;;22.40;76.37;96985.63;5030355;28;20246;-69
2023/06/05 09:16:38;;;;;;;4.30;4.00;;;;;;;22.61;69.75;96985.72;4995395;28;20959;-70
2023/06/05 09:19:07;;;;;;;4.20;3.80;;;;;;;22.58;72.96;96988.97;5049703;28;20714;-71
2023/06/05 09:21:34;;;;;;;3.70;3.50;;;;;;;22.89;71.53;96984.41;5050880;28;20727;-70
2023/06/05 09:24:15;;;;;;;4.23;3.90;;;;;;;23.21;68.93;96990.63;5032156;28;20234;-70
2023/06/05 09:26:55;;;;;;;3.30;3.10;;;;;;;23.14;66.73;96985.50;5045602;28;20231;-70
2023/06/05 09:29:25;;;;;;;3.40;3.20;;;;;;;23.48;65.86;96987.66;5023656;28;20246;-72
2023/06/05 09:31:55;;;;;;;3.63;3.43;;;;;;;23.79;66.54;96993.00;5001572;28;20811;-70
2023/06/05 09:34:24;;;;;;;4.37;3.57;;;;;;;24.10;62.67;96984.03;5051251;28;20480;-72
2023/06/05 09:36:54;;;;;;;3.70;3.40;;;;;;;24.07;62.10;96990.78;5051776;28;20255;-72
2023/06/05 09:39:24;;;;;;;4.20;3.90;;;;;;;23.85;62.25;96988.41;5024927;28;20287;-71
2023/06/05 09:41:52;;;;;;;4.00;3.70;;;;;;;23.48;64.79;96979.53;5052384;28;20291;-69
2023/06/05 09:44:20;;;;;;;5.47;3.93;;;;;;;23.08;64.46;96982.00;5027497;28;20311;-72
2023/06/05 09:46:52;;;;;;;4.20;4.00;;;;;;;23.58;66.76;96986.84;5053584;28;20597;-69
2023/06/05 09:49:25;;;;;;;3.90;3.70;;;;;;;23.23;63.89;96983.88;4999737;28;20696;-71
2023/06/05 09:51:52;;;;;;;4.10;3.80;;;;;;;23.18;66.60;96980.34;5051137;28;20272;-70
2023/06/05 09:54:22;;;;;;;4.33;4.03;;;;;;;23.13;70.35;96981.19;5026417;28;20334;-75
2023/06/05 09:56:50;;;;;;;4.27;3.90;;;;;;;23.69;62.77;96984.94;5052692;28;20196;-70
2023/06/05 09:59:21;;;;;;;3.80;3.60;;;;;;;23.80;61.67;96983.00;5029867;28;20835;-72
2023/06/05 10:01:50;;;;;;;4.07;3.87;;;;;;;23.68;63.07;96977.91;5053411;28;20207;-70
2023/06/05 10:04:21;;;;;;;3.03;2.83;;;;;;;23.09;67.60;96982.78;4997232;28;20234;-72
2023/06/05 10:06:50;;;;;;;3.10;2.90;;;;;;;23.38;60.56;96977.69;5054008;28;20227;-70
2023/06/05 10:09:18;;;;;;;3.70;3.40;;;;;;;23.51;63.07;96981.72;5033975;28;20287;-71
2023/06/05 10:11:49;;;;;;;4.80;3.50;;;;;;;23.49;63.70;96977.66;5044391;28;20212;-70
2023/06/05 10:14:17;;;;;;;3.40;3.17;;;;;;;23.92;60.24;96969.97;5032814;28;20232;-71
2023/06/05 10:16:47;;;;;;;3.50;3.20;;;;;;;24.42;58.40;96977.34;5048632;28;20228;-73
2023/06/05 10:19:16;;;;;;;3.80;3.50;;;;;;;24.09;59.21;96979.72;4996618;28;20746;-73
2023/06/05 10:21:47;;;;;;;3.87;3.60;;;;;;;23.92;59.97;96985.41;5054298;28;20433;-71
2023/06/05 10:24:19;;;;;;;3.80;3.60;;;;;;;23.89;61.36;96980.56;5045025;28;20228;-73
2023/06/05 10:27:24;;;;;;;3.97;3.67;;;;;;;24.05;60.43;96979.44;5030783;28;20244;-71
2023/06/05 10:30:37;;;;;;;4.33;3.97;;;;;;;23.78;63.04;96972.44;5047520;28;20291;-71
2023/06/05 10:33:19;;;;;;;4.77;3.97;;;;;;;23.46;64.42;96978.22;4998411;28;20400;-70
2023/06/05 10:35:50;;;;;;;5.33;4.03;;;;;;;23.37;64.91;96967.97;5047263;28;20209;-70
2023/06/05 10:38:22;;;;;;;4.67;4.13;;;;;;;23.51;67.35;96976.31;5050389;28;20209;-71
2023/06/05 10:40:53;;;;;;;4.33;3.93;;;;;;;23.78;64.75;96985.19;5053400;28;20201;-70
2023/06/05 10:43:24;;;;;;;3.77;3.57;;;;;;;23.60;63.82;96981.16;5036406;28;20246;-74
2023/06/05 10:45:52;;;;;;;4.10;3.70;;;;;;;23.70;63.19;96986.53;5046960;28;20266;-70
2023/06/05 10:49:12;;;;;;;3.83;3.63;;;;;;;23.84;61.64;96981.38;4984266;28;20969;-70
2023/06/05 10:51:42;;;;;;;3.90;3.70;;;;;;;24.16;62.57;96973.97;5052725;28;20468;-71
2023/06/05 10:54:15;;;;;;;4.27;3.97;;;;;;;24.34;59.46;96983.38;5048596;28;20221;-73
2023/06/05 10:57:06;;;;;;;4.30;3.97;;;;;;;24.71;59.21;96977.47;5045303;28;20203;-70
2023/06/05 10:59:35;;;;;;;4.10;3.67;;;;;;;24.96;57.27;96977.59;5039597;28;20349;-70
2023/06/05 11:02:26;;;;;;;3.83;3.53;;;;;;;25.33;56.25;96978.09;5048673;28;20241;-72
2023/06/05 11:05:10;;;;;;;4.40;3.13;;;;;;;25.75;55.62;96973.13;4994167;28;20307;-70
2023/06/05 11:07:39;;;;;;;4.50;3.60;;;;;;;26.02;53.63;96972.53;5043005;28;20447;-71
2023/06/05 11:10:24;;;;;;;3.87;3.67;;;;;;;26.30;53.03;96970.06;5046828;28;20197;-73
2023/06/05 11:12:59;;;;;;;4.13;3.93;;;;;;;25.77;54.18;96973.63;5051409;28;20209;-70
2023/06/05 11:15:43;;;;;;;4.67;4.27;;;;;;;25.13;55.59;96972.56;5044604;28;20837;-71
2023/06/05 11:18:33;;;;;;;4.60;4.30;;;;;;;24.84;56.90;96965.22;5030445;28;20814;-70
2023/06/05 11:21:01;;;;;;;4.57;4.17;;;;;;;24.56;57.75;96975.66;4997454;28;20332;-69
2023/06/05 11:23:29;;;;;;;3.77;3.57;;;;;;;24.17;60.36;96971.00;5041808;28;20559;-70
2023/06/05 11:26:37;;;;;;;3.87;3.67;;;;;;;24.30;60.94;96961.47;5049918;28;20209;-71
2023/06/05 11:29:11;;;;;;;4.33;3.57;;;;;;;24.28;63.54;96961.72;5047626;28;20232;-70
2023/06/05 11:31:39;;;;;;;4.47;4.10;;;;;;;24.07;62.53;96963.72;5044123;28;20826;-71
2023/06/05 11:34:12;;;;;;;4.03;3.83;;;;;;;24.11;60.97;96959.38;5028276;28;20229;-70
2023/06/05 11:36:40;;;;;;;4.03;3.80;;;;;;;24.10;62.51;96956.97;4992658;28;20535;-69
2023/06/05 11:39:10;;;;;;;3.83;3.53;;;;;;;24.50;63.13;96965.13;5053125;28;20199;-72
2023/06/05 11:41:45;;;;;;;4.37;3.97;;;;;;;24.39;62.96;96962.50;5049166;28;20281;-70
2023/06/05 11:44:14;;;;;;;4.10;3.70;;;;;;;25.38;63.07;96956.34;5026029;28;20270;-71
2023/06/05 11:46:43;;;;;;;4.13;3.83;;;;;;;25.20;57.86;96963.31;5045661;28;20240;-68